sensor_id;sensor_type;location;lat;lon;timestamp;temperature;humidity
3134;DHT22;1577;49.912;10.924;2023-11-19T00:02:23;6.20;99.90
3134;DHT22;1577;49.912;10.924;2023-11-19T00:04:49;6.20;99.90
3134;DHT22;1577;49.912;10.924;2023-11-19T00:07:14;6.20;99.90
3134;DHT22;1577;49.912;10.924;2023-11-19T00:09:40;6.10;99.90
3134;DHT22;1577;49.912;10.924;2023-11-19T00:12:06;6.20;99.90
3134;DHT22;1577;49.912;10.924;2023-11-19T00:14:33;6.10;99.90
3134;DHT22;1577;49.912;10.924;2023-11-19T00:16:59;6.10;99.90
3134;DHT22;1577;49.912;10.924;2023-11-19T00:19:25;6.10;99.90
3134;DHT22;1577;49.912;10.924;2023-11-19T00:21:52;6.20;99.90
3134;DHT22;1577;49.912;10.924;2023-11-19T00:24:17;6.30;99.90
3134;DHT22;1577;49.912;10.924;2023-11-19T00:26:43;6.30;99.90
3134;DHT22;1577;49.912;10.924;2023-11-19T00:29:09;6.20;99.90
3134;DHT22;1577;49.912;10.924;2023-11-19T00:31:35;6.30;99.90
3134;DHT22;1577;49.912;10.924;2023-11-19T00:34:01;6.30;99.90
3134;DHT22;1577;49.912;10.924;2023-11-19T00:36:28;6.30;99.90
3134;DHT22;1577;49.912;10.924;2023-11-19T00:38:54;6.30;99.90
3134;DHT22;1577;49.912;10.924;2023-11-19T00:41:19;6.30;99.90
3134;DHT22;1577;49.912;10.924;2023-11-19T00:43:45;6.40;99.90
3134;DHT22;1577;49.912;10.924;2023-11-19T00:46:11;6.30;99.90
3134;DHT22;1577;49.912;10.924;2023-11-19T00:48:37;6.30;99.90
3134;DHT22;1577;49.912;10.924;2023-11-19T00:51:03;6.30;99.90
3134;DHT22;1577;49.912;10.924;2023-11-19T00:53:29;6.30;99.90
3134;DHT22;1577;49.912;10.924;2023-11-19T00:55:55;6.20;99.90
3134;DHT22;1577;49.912;10.924;2023-11-19T00:58:21;6.30;99.90
3134;DHT22;1577;49.912;10.924;2023-11-19T01:00:46;6.30;99.90
3134;DHT22;1577;49.912;10.924;2023-11-19T01:03:12;6.30;99.90
3134;DHT22;1577;49.912;10.924;2023-11-19T01:05:38;6.40;99.90
3134;DHT22;1577;49.912;10.924;2023-11-19T01:08:04;6.40;99.90
3134;DHT22;1577;49.912;10.924;2023-11-19T01:10:30;6.40;99.90
3134;DHT22;1577;49.912;10.924;2023-11-19T01:12:56;6.40;99.90
3134;DHT22;1577;49.912;10.924;2023-11-19T01:15:22;6.40;99.90
3134;DHT22;1577;49.912;10.924;2023-11-19T01:17:48;6.30;99.90
3134;DHT22;1577;49.912;10.924;2023-11-19T01:20:14;6.40;99.90
3134;DHT22;1577;49.912;10.924;2023-11-19T01:22:40;6.40;99.90
3134;DHT22;1577;49.912;10.924;2023-11-19T01:25:06;6.50;99.90
3134;DHT22;1577;49.912;10.924;2023-11-19T01:27:32;6.50;99.90
3134;DHT22;1577;49.912;10.924;2023-11-19T01:29:59;6.40;99.90
3134;DHT22;1577;49.912;10.924;2023-11-19T01:32:27;6.40;99.90
3134;DHT22;1577;49.912;10.924;2023-11-19T01:34:53;6.30;99.90
3134;DHT22;1577;49.912;10.924;2023-11-19T01:37:18;6.30;99.90
3134;DHT22;1577;49.912;10.924;2023-11-19T01:39:44;6.30;99.90
3134;DHT22;1577;49.912;10.924;2023-11-19T01:42:10;6.40;99.90
3134;DHT22;1577;49.912;10.924;2023-11-19T01:44:37;6.40;99.90
3134;DHT22;1577;49.912;10.924;2023-11-19T01:47:03;6.40;99.90
3134;DHT22;1577;49.912;10.924;2023-11-19T01:49:30;6.40;99.90
3134;DHT22;1577;49.912;10.924;2023-11-19T01:51:57;6.50;99.90
3134;DHT22;1577;49.912;10.924;2023-11-19T01:54:24;6.40;99.90
3134;DHT22;1577;49.912;10.924;2023-11-19T01:56:50;6.40;99.90
3134;DHT22;1577;49.912;10.924;2023-11-19T01:59:16;6.40;99.90
3134;DHT22;1577;49.912;10.924;2023-11-19T02:01:42;6.40;99.90
3134;DHT22;1577;49.912;10.924;2023-11-19T02:04:08;6.30;99.90
3134;DHT22;1577;49.912;10.924;2023-11-19T02:06:36;6.40;99.90
3134;DHT22;1577;49.912;10.924;2023-11-19T02:09:02;6.40;99.90
3134;DHT22;1577;49.912;10.924;2023-11-19T02:11:33;6.50;99.90
3134;DHT22;1577;49.912;10.924;2023-11-19T02:14:00;6.50;99.90
3134;DHT22;1577;49.912;10.924;2023-11-19T02:16:26;6.50;99.90
3134;DHT22;1577;49.912;10.924;2023-11-19T02:18:52;6.50;99.90
3134;DHT22;1577;49.912;10.924;2023-11-19T02:21:17;6.50;99.90
3134;DHT22;1577;49.912;10.924;2023-11-19T02:23:43;6.50;99.90
3134;DHT22;1577;49.912;10.924;2023-11-19T02:27:10;6.50;99.90
3134;DHT22;1577;49.912;10.924;2023-11-19T02:29:04;6.60;99.90
3134;DHT22;1577;49.912;10.924;2023-11-19T02:31:32;6.60;99.90
3134;DHT22;1577;49.912;10.924;2023-11-19T02:33:57;6.50;99.90
3134;DHT22;1577;49.912;10.924;2023-11-19T02:36:25;6.50;99.90
3134;DHT22;1577;49.912;10.924;2023-11-19T02:38:51;6.50;99.90
3134;DHT22;1577;49.912;10.924;2023-11-19T02:41:16;6.50;99.90
3134;DHT22;1577;49.912;10.924;2023-11-19T02:43:42;6.60;99.90
3134;DHT22;1577;49.912;10.924;2023-11-19T02:46:08;6.80;99.90
3134;DHT22;1577;49.912;10.924;2023-11-19T02:48:34;6.70;99.90
3134;DHT22;1577;49.912;10.924;2023-11-19T02:51:03;6.70;99.90
3134;DHT22;1577;49.912;10.924;2023-11-19T02:53:32;6.60;99.90
3134;DHT22;1577;49.912;10.924;2023-11-19T02:55:58;6.60;99.90
3134;DHT22;1577;49.912;10.924;2023-11-19T02:58:45;6.70;99.90
3134;DHT22;1577;49.912;10.924;2023-11-19T03:01:12;6.60;99.90
3134;DHT22;1577;49.912;10.924;2023-11-19T03:03:48;6.50;99.90
3134;DHT22;1577;49.912;10.924;2023-11-19T03:06:19;6.60;99.90
3134;DHT22;1577;49.912;10.924;2023-11-19T03:08:45;6.50;99.90
3134;DHT22;1577;49.912;10.924;2023-11-19T03:11:10;6.50;99.90
3134;DHT22;1577;49.912;10.924;2023-11-19T03:13:36;6.50;99.90
3134;DHT22;1577;49.912;10.924;2023-11-19T03:16:01;6.50;99.90
3134;DHT22;1577;49.912;10.924;2023-11-19T03:18:27;6.40;99.90
3134;DHT22;1577;49.912;10.924;2023-11-19T03:20:53;6.40;99.90
3134;DHT22;1577;49.912;10.924;2023-11-19T03:23:19;6.50;99.90
3134;DHT22;1577;49.912;10.924;2023-11-19T03:25:45;6.60;99.90
3134;DHT22;1577;49.912;10.924;2023-11-19T03:28:10;6.60;99.90
3134;DHT22;1577;49.912;10.924;2023-11-19T03:30:36;6.60;99.90
3134;DHT22;1577;49.912;10.924;2023-11-19T03:33:02;6.60;99.90
3134;DHT22;1577;49.912;10.924;2023-11-19T03:35:28;6.60;99.90
3134;DHT22;1577;49.912;10.924;2023-11-19T03:37:54;6.60;99.90
3134;DHT22;1577;49.912;10.924;2023-11-19T03:40:20;6.70;99.90
3134;DHT22;1577;49.912;10.924;2023-11-19T03:42:46;6.70;99.90
3134;DHT22;1577;49.912;10.924;2023-11-19T03:45:12;6.80;99.90
3134;DHT22;1577;49.912;10.924;2023-11-19T03:47:38;6.70;99.90
3134;DHT22;1577;49.912;10.924;2023-11-19T03:50:05;6.70;99.90
3134;DHT22;1577;49.912;10.924;2023-11-19T03:52:30;6.80;99.90
3134;DHT22;1577;49.912;10.924;2023-11-19T03:54:56;6.90;99.90
3134;DHT22;1577;49.912;10.924;2023-11-19T03:57:23;6.90;99.90
3134;DHT22;1577;49.912;10.924;2023-11-19T03:59:49;6.90;99.90
3134;DHT22;1577;49.912;10.924;2023-11-19T04:02:15;6.90;99.90
3134;DHT22;1577;49.912;10.924;2023-11-19T04:04:41;7.10;99.90
3134;DHT22;1577;49.912;10.924;2023-11-19T04:07:06;7.00;99.90
3134;DHT22;1577;49.912;10.924;2023-11-19T04:09:32;6.90;99.90
3134;DHT22;1577;49.912;10.924;2023-11-19T04:12:03;6.90;99.90
3134;DHT22;1577;49.912;10.924;2023-11-19T04:14:29;6.90;99.90
3134;DHT22;1577;49.912;10.924;2023-11-19T04:16:54;7.00;99.90
3134;DHT22;1577;49.912;10.924;2023-11-19T04:19:20;7.00;99.90
3134;DHT22;1577;49.912;10.924;2023-11-19T04:21:46;7.00;99.90
3134;DHT22;1577;49.912;10.924;2023-11-19T04:24:12;6.90;99.90
3134;DHT22;1577;49.912;10.924;2023-11-19T04:26:45;6.90;99.90
3134;DHT22;1577;49.912;10.924;2023-11-19T04:29:15;6.90;99.90
3134;DHT22;1577;49.912;10.924;2023-11-19T04:31:42;7.00;99.90
3134;DHT22;1577;49.912;10.924;2023-11-19T04:34:08;7.00;99.90
3134;DHT22;1577;49.912;10.924;2023-11-19T04:36:34;7.00;99.90
3134;DHT22;1577;49.912;10.924;2023-11-19T04:39:00;7.00;99.90
3134;DHT22;1577;49.912;10.924;2023-11-19T04:41:26;7.00;99.90
3134;DHT22;1577;49.912;10.924;2023-11-19T04:43:53;7.00;99.90
3134;DHT22;1577;49.912;10.924;2023-11-19T04:46:19;7.00;99.90
3134;DHT22;1577;49.912;10.924;2023-11-19T04:48:45;7.00;99.90
3134;DHT22;1577;49.912;10.924;2023-11-19T04:51:10;7.00;99.90
3134;DHT22;1577;49.912;10.924;2023-11-19T04:53:36;7.00;99.90
3134;DHT22;1577;49.912;10.924;2023-11-19T04:56:10;7.00;99.90
3134;DHT22;1577;49.912;10.924;2023-11-19T04:58:36;7.00;99.90
3134;DHT22;1577;49.912;10.924;2023-11-19T05:01:05;7.00;99.90
3134;DHT22;1577;49.912;10.924;2023-11-19T05:03:31;7.10;99.90
3134;DHT22;1577;49.912;10.924;2023-11-19T05:05:58;7.10;99.90
3134;DHT22;1577;49.912;10.924;2023-11-19T05:08:23;7.20;99.90
3134;DHT22;1577;49.912;10.924;2023-11-19T05:10:49;7.20;99.90
3134;DHT22;1577;49.912;10.924;2023-11-19T05:13:15;7.20;99.90
3134;DHT22;1577;49.912;10.924;2023-11-19T05:15:40;7.20;99.90
3134;DHT22;1577;49.912;10.924;2023-11-19T05:18:06;7.30;99.90
3134;DHT22;1577;49.912;10.924;2023-11-19T05:20:32;7.40;99.90
3134;DHT22;1577;49.912;10.924;2023-11-19T05:22:58;7.40;99.90
3134;DHT22;1577;49.912;10.924;2023-11-19T05:25:26;7.40;99.90
3134;DHT22;1577;49.912;10.924;2023-11-19T05:27:52;7.40;99.90
3134;DHT22;1577;49.912;10.924;2023-11-19T05:30:17;7.50;99.90
3134;DHT22;1577;49.912;10.924;2023-11-19T05:32:43;7.60;99.90
3134;DHT22;1577;49.912;10.924;2023-11-19T05:35:09;7.60;99.90
3134;DHT22;1577;49.912;10.924;2023-11-19T05:37:34;7.50;99.90
3134;DHT22;1577;49.912;10.924;2023-11-19T05:40:00;7.50;99.90
3134;DHT22;1577;49.912;10.924;2023-11-19T05:42:28;7.50;99.90
3134;DHT22;1577;49.912;10.924;2023-11-19T05:44:54;7.50;99.90
3134;DHT22;1577;49.912;10.924;2023-11-19T05:47:19;7.50;99.90
3134;DHT22;1577;49.912;10.924;2023-11-19T05:49:45;7.50;99.90
3134;DHT22;1577;49.912;10.924;2023-11-19T05:52:10;7.50;99.90
3134;DHT22;1577;49.912;10.924;2023-11-19T05:54:37;7.50;99.90
3134;DHT22;1577;49.912;10.924;2023-11-19T05:57:05;7.50;99.90
3134;DHT22;1577;49.912;10.924;2023-11-19T05:59:30;7.50;99.90
3134;DHT22;1577;49.912;10.924;2023-11-19T06:01:58;7.50;99.90
3134;DHT22;1577;49.912;10.924;2023-11-19T06:04:24;7.50;99.90
3134;DHT22;1577;49.912;10.924;2023-11-19T06:06:49;7.50;99.90
3134;DHT22;1577;49.912;10.924;2023-11-19T06:09:15;7.50;99.90
3134;DHT22;1577;49.912;10.924;2023-11-19T06:11:40;7.50;99.90
3134;DHT22;1577;49.912;10.924;2023-11-19T06:14:06;7.70;99.90
3134;DHT22;1577;49.912;10.924;2023-11-19T06:16:32;7.70;99.90
3134;DHT22;1577;49.912;10.924;2023-11-19T06:18:58;7.80;99.90
3134;DHT22;1577;49.912;10.924;2023-11-19T06:21:24;7.80;99.90
3134;DHT22;1577;49.912;10.924;2023-11-19T06:23:50;7.80;99.90
3134;DHT22;1577;49.912;10.924;2023-11-19T06:26:17;7.80;99.90
3134;DHT22;1577;49.912;10.924;2023-11-19T06:28:43;7.80;99.90
3134;DHT22;1577;49.912;10.924;2023-11-19T06:31:10;7.80;99.90
3134;DHT22;1577;49.912;10.924;2023-11-19T06:33:35;7.80;99.90
3134;DHT22;1577;49.912;10.924;2023-11-19T06:36:01;7.80;99.90
3134;DHT22;1577;49.912;10.924;2023-11-19T06:38:27;7.80;99.90
3134;DHT22;1577;49.912;10.924;2023-11-19T06:40:52;7.80;99.90
3134;DHT22;1577;49.912;10.924;2023-11-19T06:43:18;7.90;99.90
3134;DHT22;1577;49.912;10.924;2023-11-19T06:45:43;7.80;99.90
3134;DHT22;1577;49.912;10.924;2023-11-19T06:48:09;7.80;99.90
3134;DHT22;1577;49.912;10.924;2023-11-19T06:50:34;7.80;99.90
3134;DHT22;1577;49.912;10.924;2023-11-19T06:53:00;7.80;99.90
3134;DHT22;1577;49.912;10.924;2023-11-19T06:55:26;7.90;99.90
3134;DHT22;1577;49.912;10.924;2023-11-19T06:57:52;7.90;99.90
3134;DHT22;1577;49.912;10.924;2023-11-19T07:00:18;8.00;99.90
3134;DHT22;1577;49.912;10.924;2023-11-19T07:02:44;8.10;99.90
3134;DHT22;1577;49.912;10.924;2023-11-19T07:05:09;8.10;99.90
3134;DHT22;1577;49.912;10.924;2023-11-19T07:07:35;8.00;99.90
3134;DHT22;1577;49.912;10.924;2023-11-19T07:10:01;8.10;99.90
3134;DHT22;1577;49.912;10.924;2023-11-19T07:12:28;8.10;99.90
3134;DHT22;1577;49.912;10.924;2023-11-19T07:14:54;8.10;99.90
3134;DHT22;1577;49.912;10.924;2023-11-19T07:17:20;8.20;99.90
3134;DHT22;1577;49.912;10.924;2023-11-19T07:19:52;8.10;99.90
3134;DHT22;1577;49.912;10.924;2023-11-19T07:22:17;8.20;99.90
3134;DHT22;1577;49.912;10.924;2023-11-19T07:24:43;8.30;99.90
3134;DHT22;1577;49.912;10.924;2023-11-19T07:27:09;8.30;99.90
3134;DHT22;1577;49.912;10.924;2023-11-19T07:29:35;8.30;99.90
3134;DHT22;1577;49.912;10.924;2023-11-19T07:32:01;8.40;99.90
3134;DHT22;1577;49.912;10.924;2023-11-19T07:34:30;8.50;99.90
3134;DHT22;1577;49.912;10.924;2023-11-19T07:36:56;8.50;99.90
3134;DHT22;1577;49.912;10.924;2023-11-19T07:39:27;8.60;99.90
3134;DHT22;1577;49.912;10.924;2023-11-19T07:41:53;8.50;99.90
3134;DHT22;1577;49.912;10.924;2023-11-19T07:44:19;8.70;99.90
3134;DHT22;1577;49.912;10.924;2023-11-19T07:46:46;8.70;99.90
3134;DHT22;1577;49.912;10.924;2023-11-19T07:49:13;8.70;99.90
3134;DHT22;1577;49.912;10.924;2023-11-19T07:51:39;8.70;99.90
3134;DHT22;1577;49.912;10.924;2023-11-19T07:54:05;8.70;99.90
3134;DHT22;1577;49.912;10.924;2023-11-19T07:56:33;8.70;99.90
3134;DHT22;1577;49.912;10.924;2023-11-19T07:58:59;8.80;99.90
3134;DHT22;1577;49.912;10.924;2023-11-19T08:01:25;8.80;99.90
3134;DHT22;1577;49.912;10.924;2023-11-19T08:03:50;8.80;99.90
3134;DHT22;1577;49.912;10.924;2023-11-19T08:06:16;8.90;99.90
3134;DHT22;1577;49.912;10.924;2023-11-19T08:08:42;9.00;99.90
3134;DHT22;1577;49.912;10.924;2023-11-19T08:11:08;9.00;99.90
3134;DHT22;1577;49.912;10.924;2023-11-19T08:13:34;9.00;99.90
3134;DHT22;1577;49.912;10.924;2023-11-19T08:15:59;9.10;99.90
3134;DHT22;1577;49.912;10.924;2023-11-19T08:18:25;9.10;99.90
3134;DHT22;1577;49.912;10.924;2023-11-19T08:20:50;9.20;99.90
3134;DHT22;1577;49.912;10.924;2023-11-19T08:23:22;9.20;99.90
3134;DHT22;1577;49.912;10.924;2023-11-19T08:25:57;9.30;99.90
3134;DHT22;1577;49.912;10.924;2023-11-19T08:28:23;9.40;99.90
3134;DHT22;1577;49.912;10.924;2023-11-19T08:30:48;9.30;99.90
3134;DHT22;1577;49.912;10.924;2023-11-19T08:33:17;9.40;99.90
3134;DHT22;1577;49.912;10.924;2023-11-19T08:35:42;9.50;99.90
3134;DHT22;1577;49.912;10.924;2023-11-19T08:38:08;9.50;99.90
3134;DHT22;1577;49.912;10.924;2023-11-19T08:40:34;9.50;99.90
3134;DHT22;1577;49.912;10.924;2023-11-19T08:42:59;9.60;99.90
3134;DHT22;1577;49.912;10.924;2023-11-19T08:45:25;9.70;99.90
3134;DHT22;1577;49.912;10.924;2023-11-19T08:47:51;9.70;99.90
3134;DHT22;1577;49.912;10.924;2023-11-19T08:50:16;9.80;99.90
3134;DHT22;1577;49.912;10.924;2023-11-19T08:52:42;9.80;99.90
3134;DHT22;1577;49.912;10.924;2023-11-19T08:55:08;9.80;99.90
3134;DHT22;1577;49.912;10.924;2023-11-19T08:57:35;10.00;99.90
3134;DHT22;1577;49.912;10.924;2023-11-19T09:00:01;10.20;99.90
3134;DHT22;1577;49.912;10.924;2023-11-19T09:02:26;10.30;99.90
3134;DHT22;1577;49.912;10.924;2023-11-19T09:04:52;10.30;99.90
3134;DHT22;1577;49.912;10.924;2023-11-19T09:07:17;10.40;99.90
3134;DHT22;1577;49.912;10.924;2023-11-19T09:09:43;10.50;99.90
3134;DHT22;1577;49.912;10.924;2023-11-19T09:12:09;10.60;99.90
3134;DHT22;1577;49.912;10.924;2023-11-19T09:14:34;10.60;99.90
3134;DHT22;1577;49.912;10.924;2023-11-19T09:17:00;10.70;99.90
3134;DHT22;1577;49.912;10.924;2023-11-19T09:19:25;10.70;99.90
3134;DHT22;1577;49.912;10.924;2023-11-19T09:21:52;10.70;99.90
3134;DHT22;1577;49.912;10.924;2023-11-19T09:24:18;10.80;99.90
3134;DHT22;1577;49.912;10.924;2023-11-19T09:26:43;10.90;99.90
3134;DHT22;1577;49.912;10.924;2023-11-19T09:29:10;11.10;99.90
3134;DHT22;1577;49.912;10.924;2023-11-19T09:31:38;11.30;99.90
3134;DHT22;1577;49.912;10.924;2023-11-19T09:34:04;11.40;99.90
3134;DHT22;1577;49.912;10.924;2023-11-19T09:36:29;11.50;99.90
3134;DHT22;1577;49.912;10.924;2023-11-19T09:38:55;11.60;99.90
3134;DHT22;1577;49.912;10.924;2023-11-19T09:41:21;11.60;99.90
3134;DHT22;1577;49.912;10.924;2023-11-19T09:43:47;11.70;99.90
3134;DHT22;1577;49.912;10.924;2023-11-19T09:46:16;11.80;99.90
3134;DHT22;1577;49.912;10.924;2023-11-19T09:48:42;11.80;99.90
3134;DHT22;1577;49.912;10.924;2023-11-19T09:51:09;12.00;99.90
3134;DHT22;1577;49.912;10.924;2023-11-19T09:53:36;12.20;99.90
3134;DHT22;1577;49.912;10.924;2023-11-19T09:56:03;12.30;99.90
3134;DHT22;1577;49.912;10.924;2023-11-19T09:58:29;12.40;99.90
3134;DHT22;1577;49.912;10.924;2023-11-19T10:00:56;12.50;99.90
3134;DHT22;1577;49.912;10.924;2023-11-19T10:03:25;12.50;99.90
3134;DHT22;1577;49.912;10.924;2023-11-19T10:05:52;12.60;99.90
3134;DHT22;1577;49.912;10.924;2023-11-19T10:08:18;12.60;99.90
3134;DHT22;1577;49.912;10.924;2023-11-19T10:10:44;12.60;99.90
3134;DHT22;1577;49.912;10.924;2023-11-19T10:13:10;12.70;99.90
3134;DHT22;1577;49.912;10.924;2023-11-19T10:15:37;12.80;99.90
3134;DHT22;1577;49.912;10.924;2023-11-19T10:18:03;12.90;99.90
3134;DHT22;1577;49.912;10.924;2023-11-19T10:20:40;12.90;99.90
3134;DHT22;1577;49.912;10.924;2023-11-19T10:23:06;12.90;99.90
3134;DHT22;1577;49.912;10.924;2023-11-19T10:25:32;12.90;99.90
3134;DHT22;1577;49.912;10.924;2023-11-19T10:27:59;13.00;99.90
3134;DHT22;1577;49.912;10.924;2023-11-19T10:30:27;13.00;99.90
3134;DHT22;1577;49.912;10.924;2023-11-19T10:33:13;13.10;99.90
3134;DHT22;1577;49.912;10.924;2023-11-19T10:35:56;13.20;99.90
3134;DHT22;1577;49.912;10.924;2023-11-19T10:38:22;13.40;99.90
3134;DHT22;1577;49.912;10.924;2023-11-19T10:40:48;13.50;99.90
3134;DHT22;1577;49.912;10.924;2023-11-19T10:43:14;13.50;99.90
3134;DHT22;1577;49.912;10.924;2023-11-19T10:45:40;13.60;99.90
3134;DHT22;1577;49.912;10.924;2023-11-19T10:48:07;13.60;99.90
3134;DHT22;1577;49.912;10.924;2023-11-19T10:50:36;13.70;99.90
3134;DHT22;1577;49.912;10.924;2023-11-19T10:53:03;13.90;99.90
3134;DHT22;1577;49.912;10.924;2023-11-19T10:55:30;13.90;99.90
3134;DHT22;1577;49.912;10.924;2023-11-19T10:58:01;13.90;99.90
3134;DHT22;1577;49.912;10.924;2023-11-19T11:00:54;13.80;99.90
3134;DHT22;1577;49.912;10.924;2023-11-19T11:03:22;13.60;99.90
3134;DHT22;1577;49.912;10.924;2023-11-19T11:05:51;13.60;99.90
3134;DHT22;1577;49.912;10.924;2023-11-19T11:08:18;13.70;99.90
3134;DHT22;1577;49.912;10.924;2023-11-19T11:10:56;13.70;99.90
3134;DHT22;1577;49.912;10.924;2023-11-19T11:13:23;13.80;99.90
3134;DHT22;1577;49.912;10.924;2023-11-19T11:15:50;13.90;99.90
3134;DHT22;1577;49.912;10.924;2023-11-19T11:18:16;13.90;99.90
3134;DHT22;1577;49.912;10.924;2023-11-19T11:20:46;14.00;99.90
3134;DHT22;1577;49.912;10.924;2023-11-19T11:28:59;13.90;99.90
3134;DHT22;1577;49.912;10.924;2023-11-19T11:39:35;13.80;99.90
3134;DHT22;1577;49.912;10.924;2023-11-19T11:45:09;13.70;99.90
3134;DHT22;1577;49.912;10.924;2023-11-19T11:50:17;13.60;99.90
3134;DHT22;1577;49.912;10.924;2023-11-19T11:55:34;13.70;99.90
3134;DHT22;1577;49.912;10.924;2023-11-19T11:58:02;13.70;99.90
3134;DHT22;1577;49.912;10.924;2023-11-19T12:00:37;13.80;99.90
3134;DHT22;1577;49.912;10.924;2023-11-19T12:03:04;13.90;99.90
3134;DHT22;1577;49.912;10.924;2023-11-19T12:05:30;14.10;99.90
3134;DHT22;1577;49.912;10.924;2023-11-19T12:08:01;14.40;99.90
3134;DHT22;1577;49.912;10.924;2023-11-19T12:10:31;14.50;99.90
3134;DHT22;1577;49.912;10.924;2023-11-19T12:13:01;14.40;99.90
3134;DHT22;1577;49.912;10.924;2023-11-19T12:15:27;14.30;99.90
3134;DHT22;1577;49.912;10.924;2023-11-19T12:17:54;14.30;99.90
3134;DHT22;1577;49.912;10.924;2023-11-19T12:20:25;14.10;99.90
3134;DHT22;1577;49.912;10.924;2023-11-19T12:22:52;14.10;99.90
3134;DHT22;1577;49.912;10.924;2023-11-19T12:25:19;14.00;99.90
3134;DHT22;1577;49.912;10.924;2023-11-19T12:27:50;14.10;99.90
3134;DHT22;1577;49.912;10.924;2023-11-19T12:30:22;14.10;99.90
3134;DHT22;1577;49.912;10.924;2023-11-19T12:32:49;14.00;99.90
3134;DHT22;1577;49.912;10.924;2023-11-19T12:35:15;13.90;99.90
3134;DHT22;1577;49.912;10.924;2023-11-19T12:37:48;13.80;99.90
3134;DHT22;1577;49.912;10.924;2023-11-19T12:42:41;13.90;99.90
3134;DHT22;1577;49.912;10.924;2023-11-19T12:45:06;13.90;99.90
3134;DHT22;1577;49.912;10.924;2023-11-19T12:47:33;13.80;99.90
3134;DHT22;1577;49.912;10.924;2023-11-19T12:49:59;13.90;99.90
3134;DHT22;1577;49.912;10.924;2023-11-19T12:52:25;13.90;99.90
3134;DHT22;1577;49.912;10.924;2023-11-19T12:54:50;13.90;99.90
3134;DHT22;1577;49.912;10.924;2023-11-19T12:57:16;13.80;99.90
3134;DHT22;1577;49.912;10.924;2023-11-19T12:59:54;13.70;99.90
3134;DHT22;1577;49.912;10.924;2023-11-19T13:02:21;13.70;99.90
3134;DHT22;1577;49.912;10.924;2023-11-19T13:04:47;13.60;99.90
3134;DHT22;1577;49.912;10.924;2023-11-19T13:07:12;13.50;99.90
3134;DHT22;1577;49.912;10.924;2023-11-19T13:09:38;13.50;99.90
3134;DHT22;1577;49.912;10.924;2023-11-19T13:12:15;13.40;99.90
3134;DHT22;1577;49.912;10.924;2023-11-19T13:14:40;13.30;99.90
3134;DHT22;1577;49.912;10.924;2023-11-19T13:17:07;13.20;99.90
3134;DHT22;1577;49.912;10.924;2023-11-19T13:19:34;13.20;99.90
3134;DHT22;1577;49.912;10.924;2023-11-19T13:22:00;13.20;99.90
3134;DHT22;1577;49.912;10.924;2023-11-19T13:24:25;13.20;99.90
3134;DHT22;1577;49.912;10.924;2023-11-19T13:26:51;13.30;99.90
3134;DHT22;1577;49.912;10.924;2023-11-19T13:29:16;13.30;99.90
3134;DHT22;1577;49.912;10.924;2023-11-19T13:31:42;13.30;99.90
3134;DHT22;1577;49.912;10.924;2023-11-19T13:34:08;13.40;99.90
3134;DHT22;1577;49.912;10.924;2023-11-19T13:36:33;13.40;99.90
3134;DHT22;1577;49.912;10.924;2023-11-19T13:38:59;13.50;99.90
3134;DHT22;1577;49.912;10.924;2023-11-19T13:41:26;13.50;99.90
3134;DHT22;1577;49.912;10.924;2023-11-19T13:43:51;13.70;99.90
3134;DHT22;1577;49.912;10.924;2023-11-19T13:46:17;13.80;99.90
3134;DHT22;1577;49.912;10.924;2023-11-19T13:48:42;13.90;99.90
3134;DHT22;1577;49.912;10.924;2023-11-19T13:51:08;14.00;99.90
3134;DHT22;1577;49.912;10.924;2023-11-19T13:53:35;14.00;99.90
3134;DHT22;1577;49.912;10.924;2023-11-19T13:56:02;14.00;99.90
3134;DHT22;1577;49.912;10.924;2023-11-19T13:58:27;14.10;99.90
3134;DHT22;1577;49.912;10.924;2023-11-19T14:00:53;14.10;99.90
3134;DHT22;1577;49.912;10.924;2023-11-19T14:03:19;14.10;99.90
3134;DHT22;1577;49.912;10.924;2023-11-19T14:05:45;14.00;99.90
3134;DHT22;1577;49.912;10.924;2023-11-19T14:08:10;13.90;99.90
3134;DHT22;1577;49.912;10.924;2023-11-19T14:10:39;13.90;99.90
3134;DHT22;1577;49.912;10.924;2023-11-19T14:13:06;13.70;99.90
3134;DHT22;1577;49.912;10.924;2023-11-19T14:15:32;13.70;99.90
3134;DHT22;1577;49.912;10.924;2023-11-19T14:17:57;13.80;99.90
3134;DHT22;1577;49.912;10.924;2023-11-19T14:20:23;13.90;99.90
3134;DHT22;1577;49.912;10.924;2023-11-19T14:22:48;13.90;99.90
3134;DHT22;1577;49.912;10.924;2023-11-19T14:25:15;14.00;99.90
3134;DHT22;1577;49.912;10.924;2023-11-19T14:27:42;14.10;99.90
3134;DHT22;1577;49.912;10.924;2023-11-19T14:30:12;14.00;99.90
3134;DHT22;1577;49.912;10.924;2023-11-19T14:32:42;14.10;99.90
3134;DHT22;1577;49.912;10.924;2023-11-19T14:35:09;14.20;99.90
3134;DHT22;1577;49.912;10.924;2023-11-19T14:37:35;14.20;99.90
3134;DHT22;1577;49.912;10.924;2023-11-19T14:40:00;14.30;99.90
3134;DHT22;1577;49.912;10.924;2023-11-19T14:42:29;14.30;99.90
3134;DHT22;1577;49.912;10.924;2023-11-19T14:44:54;14.40;99.90
3134;DHT22;1577;49.912;10.924;2023-11-19T14:47:24;14.50;99.90
3134;DHT22;1577;49.912;10.924;2023-11-19T14:49:49;14.50;99.90
3134;DHT22;1577;49.912;10.924;2023-11-19T14:52:15;14.50;99.90
3134;DHT22;1577;49.912;10.924;2023-11-19T14:54:40;14.60;99.90
3134;DHT22;1577;49.912;10.924;2023-11-19T14:57:06;14.60;99.90
3134;DHT22;1577;49.912;10.924;2023-11-19T14:59:36;14.40;99.90
3134;DHT22;1577;49.912;10.924;2023-11-19T15:02:03;14.40;99.90
3134;DHT22;1577;49.912;10.924;2023-11-19T15:04:29;14.30;99.90
3134;DHT22;1577;49.912;10.924;2023-11-19T15:06:58;14.10;99.90
3134;DHT22;1577;49.912;10.924;2023-11-19T15:09:24;14.00;99.90
3134;DHT22;1577;49.912;10.924;2023-11-19T15:11:50;13.80;99.90
3134;DHT22;1577;49.912;10.924;2023-11-19T15:14:16;13.60;99.90
3134;DHT22;1577;49.912;10.924;2023-11-19T15:16:45;13.40;99.90
3134;DHT22;1577;49.912;10.924;2023-11-19T15:19:11;13.30;99.90
3134;DHT22;1577;49.912;10.924;2023-11-19T15:21:38;13.20;99.90
3134;DHT22;1577;49.912;10.924;2023-11-19T15:24:04;13.00;99.90
3134;DHT22;1577;49.912;10.924;2023-11-19T15:26:35;12.90;99.90
3134;DHT22;1577;49.912;10.924;2023-11-19T15:29:02;12.70;99.90
3134;DHT22;1577;49.912;10.924;2023-11-19T15:31:28;12.70;99.90
3134;DHT22;1577;49.912;10.924;2023-11-19T15:33:54;12.60;99.90
3134;DHT22;1577;49.912;10.924;2023-11-19T15:36:19;12.50;99.90
3134;DHT22;1577;49.912;10.924;2023-11-19T15:38:45;12.40;99.90
3134;DHT22;1577;49.912;10.924;2023-11-19T15:41:10;12.30;99.90
3134;DHT22;1577;49.912;10.924;2023-11-19T15:43:36;12.30;99.90
3134;DHT22;1577;49.912;10.924;2023-11-19T15:46:06;12.20;99.90
3134;DHT22;1577;49.912;10.924;2023-11-19T15:48:33;12.20;99.90
3134;DHT22;1577;49.912;10.924;2023-11-19T15:50:58;12.00;99.90
3134;DHT22;1577;49.912;10.924;2023-11-19T15:53:24;12.00;99.90
3134;DHT22;1577;49.912;10.924;2023-11-19T15:55:49;11.90;99.90
3134;DHT22;1577;49.912;10.924;2023-11-19T15:58:18;11.90;99.90
3134;DHT22;1577;49.912;10.924;2023-11-19T16:00:44;11.90;99.90
3134;DHT22;1577;49.912;10.924;2023-11-19T16:03:12;11.90;99.90
3134;DHT22;1577;49.912;10.924;2023-11-19T16:05:38;11.80;99.90
3134;DHT22;1577;49.912;10.924;2023-11-19T16:08:04;11.80;99.90
3134;DHT22;1577;49.912;10.924;2023-11-19T16:10:29;11.90;99.90
3134;DHT22;1577;49.912;10.924;2023-11-19T16:12:55;11.90;99.90
3134;DHT22;1577;49.912;10.924;2023-11-19T16:15:20;12.00;99.90
3134;DHT22;1577;49.912;10.924;2023-11-19T16:17:46;12.00;99.90